Oscaloosa, Kentucky
Current Conditions -  °F | °C
As of 8:15 PM on Saturday 22 Nov 2014 (Local Time) from KLNP Reporting Station
Clear Clear  
Wind Chill: 50°   Ceiling: Unl
Heat Index: 50°   Visibility: 10mi
Dew Point: 18°   Wind: 8mph
Humidity: 28%   Direction: 180°S
Pressure: 30.22"   Gusts: NA
Location:  37.1283°N, 82.8498°W
Report Text: KLNP 230115Z AUTO 18007KT 10SM CLR 10/M08 A3022 RMK AO2
Loading
Personal Weather Stations






























Interactive Weather Map New forecast layout! Learn more

10-Day Weather Forecast

Advertisements
Track Severe Weather on mobile